Station History

Weather Underground - logo

Station Historical Data
Daily Summary for November 30, 2017 Units:  English    Metric   Both
« Previous Day
Next Day »
Daily Weekly Monthly Yearly Custom
  High: Low: Average:
Temperature: 64.2 °F 38.2 °F 49.5 °F
Dew Point: 49.9 °F 36.7 °F 44.4 °F
Humidity: 96 % 59 % 84 %
Wind Speed: 3.5 mph 0.0 mph 0.3 mph
Wind Gust: 3.5 mph - -
Wind:- - SW
Pressure: 30.21 in 30.08 in -
Precipitation: 0.00 in    
Historical Graphs
 
 
Tabular Data for November 30, 2017
Time Temperature Dew Point Pressure Wind Wind Speed Wind Gust Humidity Rainfall Rate (Hourly)
00:03 41.3 °F 39.4 °F 30.18 in Calm     93 % 0.00 in
00:08 41.3 °F 39.4 °F 30.18 in Calm     93 % 0.00 in
00:18 41.2 °F 39.3 °F 30.17 in Calm     93 % 0.00 in
00:38 41.1 °F 39.5 °F 30.18 in Calm     94 % 0.00 in
00:43 41.0 °F 39.4 °F 30.17 in Calm     94 % 0.00 in
00:48 40.9 °F 39.3 °F 30.17 in Calm     94 % 0.00 in
00:53 40.8 °F 39.2 °F 30.17 in Calm     94 % 0.00 in
01:03 40.6 °F 39.0 °F 30.17 in Calm     94 % 0.00 in
01:08 40.7 °F 39.1 °F 30.17 in Calm     94 % 0.00 in
01:23 40.3 °F 38.7 °F 30.17 in Calm     94 % 0.00 in
01:28 40.3 °F 38.7 °F 30.17 in Calm     94 % 0.00 in
01:33 40.4 °F 38.8 °F 30.17 in Calm     94 % 0.00 in
01:38 40.7 °F 39.4 °F 30.17 in Calm     95 % 0.00 in
01:48 40.6 °F 39.0 °F 30.17 in Calm     94 % 0.00 in
01:58 40.2 °F 38.6 °F 30.17 in Calm     94 % 0.00 in
02:03 40.0 °F 38.4 °F 30.17 in Calm     94 % 0.00 in
02:13 39.2 °F 37.6 °F 30.17 in Calm     94 % 0.00 in
02:18 39.1 °F 37.5 °F 30.17 in Calm     94 % 0.00 in
02:23 38.9 °F 37.3 °F 30.17 in Calm     94 % 0.00 in
02:28 38.8 °F 37.2 °F 30.17 in Calm     94 % 0.00 in
02:33 38.6 °F 37.0 °F 30.17 in Calm     94 % 0.00 in
02:38 38.8 °F 37.2 °F 30.16 in Calm     94 % 0.00 in
02:43 38.7 °F 37.1 °F 30.16 in Calm     94 % 0.00 in
02:53 38.5 °F 36.9 °F 30.16 in Calm     94 % 0.00 in
02:58 38.4 °F 36.8 °F 30.16 in Calm     94 % 0.00 in
03:03 38.3 °F 36.7 °F 30.16 in Calm     94 % 0.00 in
03:08 38.4 °F 37.1 °F 30.16 in Calm     95 % 0.00 in
03:24 38.4 °F 37.1 °F 30.15 in Calm     95 % 0.00 in
03:29 38.2 °F 36.9 °F 30.15 in Calm     95 % 0.00 in
03:59 38.3 °F 37.0 °F 30.15 in Calm     95 % 0.00 in
04:19 38.4 °F 37.1 °F 30.15 in Calm     95 % 0.00 in
04:24 38.6 °F 37.3 °F 30.15 in Calm     95 % 0.00 in
04:34 39.0 °F 37.7 °F 30.15 in Calm     95 % 0.00 in
04:39 39.1 °F 37.8 °F 30.15 in Calm     95 % 0.00 in
04:49 39.2 °F 37.9 °F 30.15 in Calm     95 % 0.00 in
04:59 39.4 °F 38.1 °F 30.16 in Calm     95 % 0.00 in
05:09 38.9 °F 37.6 °F 30.16 in Calm     95 % 0.00 in
05:14 38.7 °F 37.4 °F 30.16 in Calm     95 % 0.00 in
05:19 38.8 °F 37.5 °F 30.16 in Calm     95 % 0.00 in
05:24 38.8 °F 37.5 °F 30.17 in Calm     95 % 0.00 in
05:29 38.9 °F 37.6 °F 30.17 in Calm     95 % 0.00 in
05:34 38.9 °F 37.6 °F 30.17 in Calm     95 % 0.00 in
05:39 38.8 °F 37.5 °F 30.17 in Calm     95 % 0.00 in
05:45 39.0 °F 37.7 °F 30.17 in Calm     95 % 0.00 in
05:50 39.7 °F 38.7 °F 30.18 in Calm     96 % 0.00 in
05:55 40.0 °F 39.0 °F 30.18 in Calm     96 % 0.00 in
06:00 40.2 °F 39.2 °F 30.18 in Calm     96 % 0.00 in
06:10 40.5 °F 39.4 °F 30.18 in Calm     96 % 0.00 in
06:20 40.8 °F 39.7 °F 30.18 in Calm     96 % 0.00 in
06:30 40.8 °F 39.7 °F 30.18 in Calm     96 % 0.00 in
06:40 40.4 °F 39.1 °F 30.18 in Calm     95 % 0.00 in
06:45 40.2 °F 38.9 °F 30.18 in Calm     95 % 0.00 in
06:50 40.2 °F 38.9 °F 30.18 in Calm     95 % 0.00 in
07:00 40.3 °F 39.0 °F 30.18 in Calm     95 % 0.00 in
07:05 40.2 °F 38.9 °F 30.18 in Calm     95 % 0.00 in
07:10 40.3 °F 39.0 °F 30.18 in Calm     95 % 0.00 in
07:15 40.4 °F 39.1 °F 30.19 in Calm     95 % 0.00 in
07:20 40.7 °F 39.6 °F 30.19 in Calm     96 % 0.00 in
07:25 40.7 °F 39.6 °F 30.19 in Calm     96 % 0.00 in
07:30 40.8 °F 39.7 °F 30.19 in Calm     96 % 0.00 in
07:55 43.3 °F 42.2 °F 30.19 in Calm     96 % 0.00 in
08:00 43.9 °F 42.8 °F 30.19 in Calm     96 % 0.00 in
08:05 45.5 °F 44.4 °F 30.19 in Calm     96 % 0.00 in
08:10 46.9 °F 45.8 °F 30.19 in Calm     96 % 0.00 in
08:15 47.9 °F 46.8 °F 30.20 in Calm     96 % 0.00 in
08:20 48.0 °F 46.1 °F 30.20 in Calm     93 % 0.00 in
08:25 48.9 °F 47.0 °F 30.20 in Calm     93 % 0.00 in
08:30 49.5 °F 47.0 °F 30.20 in Calm     91 % 0.00 in
08:35 50.7 °F 47.9 °F 30.20 in Calm     90 % 0.00 in
08:41 52.2 °F 48.1 °F 30.20 in Calm     86 % 0.00 in
08:50 53.6 °F 48.6 °F 30.20 in Calm     83 % 0.00 in
08:55 53.2 °F 47.2 °F 30.20 in SE 1.2 mph   80 % 0.00 in
09:00 52.1 °F 46.4 °F 30.20 in Calm     81 % 0.00 in
09:05 52.3 °F 47.6 °F 30.20 in Calm     84 % 0.00 in
09:15 53.0 °F 47.3 °F 30.20 in Calm     81 % 0.00 in
09:20 53.2 °F 47.5 °F 30.20 in Calm     81 % 0.00 in
09:30 54.2 °F 47.1 °F 30.20 in NW 1.2 mph 1.2 mph 77 % 0.00 in
09:40 53.9 °F 46.9 °F 30.20 in Calm     77 % 0.00 in
09:45 54.1 °F 47.0 °F 30.20 in Calm     77 % 0.00 in
09:51 54.3 °F 47.2 °F 30.20 in Calm     77 % 0.00 in
09:56 54.6 °F 47.5 °F 30.20 in Calm   0.1 mph 77 % 0.00 in
10:01 55.0 °F 47.6 °F 30.20 in WNW 1.2 mph   76 % 0.00 in
10:03 55.1 °F 47.7 °F 30.21 in Calm     76 % 0.00 in
10:08 55.4 °F 48.0 °F 30.21 in North 1.2 mph 1.2 mph 76 % 0.00 in
10:13 55.4 °F 47.2 °F 30.20 in Calm     74 % 0.00 in
10:18 55.5 °F 47.7 °F 30.20 in Calm     75 % 0.00 in
10:23 56.2 °F 47.7 °F 30.20 in Calm     73 % 0.00 in
10:28 56.5 °F 48.3 °F 30.20 in Calm     74 % 0.00 in
10:33 57.0 °F 48.4 °F 30.19 in North 1.2 mph   73 % 0.00 in
10:38 57.1 °F 48.5 °F 30.19 in West 1.2 mph 1.2 mph 73 % 0.00 in
10:43 57.3 °F 48.7 °F 30.19 in Calm   0.3 mph 73 % 0.00 in
10:48 57.4 °F 48.4 °F 30.19 in NW 1.0 mph 1.0 mph 72 % 0.00 in
10:53 57.5 °F 48.5 °F 30.19 in North 2.0 mph   72 % 0.00 in
10:58 57.7 °F 48.7 °F 30.18 in WNW 1.2 mph 1.2 mph 72 % 0.00 in
11:03 57.9 °F 48.6 °F 30.18 in North 1.2 mph 1.2 mph 71 % 0.00 in
11:08 58.1 °F 48.7 °F 30.17 in NW 2.3 mph 2.3 mph 71 % 0.00 in
11:18 59.0 °F 48.8 °F 30.17 in NW 1.2 mph 1.2 mph 69 % 0.00 in
11:23 59.1 °F 48.9 °F 30.17 in NW 1.2 mph 1.2 mph 69 % 0.00 in
11:28 59.5 °F 49.3 °F 30.16 in NW 3.0 mph 3.0 mph 69 % 0.00 in
11:44 59.9 °F 48.5 °F 30.15 in NW 2.3 mph 2.3 mph 66 % 0.00 in
11:54 60.1 °F 48.7 °F 30.15 in NW 1.2 mph 1.2 mph 66 % 0.00 in
11:59 60.3 °F 48.9 °F 30.15 in WNW 3.5 mph 3.5 mph 66 % 0.00 in
12:04 60.4 °F 48.6 °F 30.14 in East 3.5 mph 3.5 mph 65 % 0.00 in
12:14 61.0 °F 49.1 °F 30.14 in Calm     65 % 0.00 in
12:24 61.6 °F 49.3 °F 30.13 in NW 2.3 mph 2.3 mph 64 % 0.00 in
12:29 61.7 °F 48.5 °F 30.13 in West 2.3 mph 2.3 mph 62 % 0.00 in
12:39 61.8 °F 49.5 °F 30.13 in Calm     64 % 0.00 in
12:44 62.0 °F 48.8 °F 30.12 in Calm     62 % 0.00 in
12:49 62.1 °F 49.8 °F 30.12 in Calm     64 % 0.00 in
12:54 62.7 °F 49.5 °F 30.12 in SSE 2.3 mph 2.3 mph 62 % 0.00 in
12:59 63.1 °F 49.9 °F 30.11 in Calm     62 % 0.00 in
13:09 63.3 °F 49.2 °F 30.11 in West 1.2 mph 1.2 mph 60 % 0.00 in
13:14 62.9 °F 48.8 °F 30.10 in NW 1.2 mph 1.2 mph 60 % 0.00 in
13:19 63.0 °F 49.8 °F 30.10 in WSW 1.0 mph 1.0 mph 62 % 0.00 in
13:29 63.8 °F 49.6 °F 30.10 in NNE 1.2 mph 1.2 mph 60 % 0.00 in
13:34 64.1 °F 49.9 °F 30.10 in South 2.3 mph 2.3 mph 60 % 0.00 in
13:39 64.1 °F 49.5 °F 30.10 in South 1.2 mph 1.2 mph 59 % 0.00 in
13:44 64.2 °F 49.6 °F 30.10 in SSE 1.2 mph   59 % 0.00 in
13:59 63.3 °F 49.6 °F 30.10 in WNW 2.3 mph 2.3 mph 61 % 0.00 in
14:04 63.2 °F 49.5 °F 30.10 in Calm     61 % 0.00 in
14:09 63.4 °F 49.7 °F 30.10 in SSE 2.0 mph 2.0 mph 61 % 0.00 in
14:14 63.5 °F 49.4 °F 30.10 in SW 1.2 mph 1.2 mph 60 % 0.00 in
14:29 63.7 °F 49.5 °F 30.10 in NW 1.2 mph 1.2 mph 60 % 0.00 in
14:39 63.0 °F 49.8 °F 30.10 in Calm     62 % 0.00 in
14:44 62.9 °F 49.7 °F 30.10 in South 1.2 mph 1.2 mph 62 % 0.00 in
14:49 62.7 °F 49.5 °F 30.10 in Calm     62 % 0.00 in
14:59 62.7 °F 48.6 °F 30.09 in Calm     60 % 0.00 in
15:04 62.5 °F 48.0 °F 30.10 in Calm     59 % 0.00 in
15:09 62.5 °F 49.3 °F 30.10 in Calm     62 % 0.00 in
15:19 62.1 °F 49.4 °F 30.09 in Calm     63 % 0.00 in
15:24 61.9 °F 49.2 °F 30.09 in Calm   0.2 mph 63 % 0.00 in
15:29 61.8 °F 49.5 °F 30.09 in WNW 1.2 mph 1.2 mph 64 % 0.00 in
15:39 61.4 °F 49.1 °F 30.09 in West 1.2 mph   64 % 0.00 in
15:59 60.5 °F 49.5 °F 30.08 in West 1.2 mph 1.2 mph 67 % 0.00 in
16:05 60.2 °F 49.6 °F 30.08 in NW 1.2 mph   68 % 0.00 in
16:10 59.9 °F 49.3 °F 30.08 in Calm     68 % 0.00 in
16:20 59.4 °F 49.2 °F 30.08 in Calm     69 % 0.00 in
16:25 59.0 °F 49.2 °F 30.08 in Calm     70 % 0.00 in
16:30 58.5 °F 49.1 °F 30.08 in Calm     71 % 0.00 in
16:35 58.0 °F 49.0 °F 30.08 in Calm     72 % 0.00 in
16:40 57.4 °F 48.8 °F 30.09 in Calm     73 % 0.00 in
16:50 56.3 °F 48.8 °F 30.09 in Calm     76 % 0.00 in
16:55 55.8 °F 48.7 °F 30.09 in Calm     77 % 0.00 in
17:00 55.4 °F 48.7 °F 30.09 in Calm     78 % 0.00 in
17:05 55.2 °F 48.8 °F 30.10 in Calm     79 % 0.00 in
17:15 55.0 °F 48.6 °F 30.10 in Calm     79 % 0.00 in
17:20 54.7 °F 48.3 °F 30.10 in Calm     79 % 0.00 in
17:25 54.4 °F 48.4 °F 30.10 in Calm     80 % 0.00 in
17:30 54.1 °F 48.1 °F 30.10 in Calm     80 % 0.00 in
17:35 53.8 °F 48.1 °F 30.11 in Calm     81 % 0.00 in
17:40 53.5 °F 47.8 °F 30.11 in Calm     81 % 0.00 in
17:45 53.2 °F 47.5 °F 30.11 in Calm     81 % 0.00 in
17:50 52.8 °F 47.5 °F 30.10 in Calm     82 % 0.00 in
17:55 52.3 °F 47.3 °F 30.11 in Calm     83 % 0.00 in
17:56 52.2 °F 47.2 °F 30.11 in Calm     83 % 0.00 in
18:06 51.4 °F 46.7 °F 30.11 in Calm     84 % 0.00 in
18:16 50.9 °F 46.9 °F 30.11 in Calm     86 % 0.00 in
18:21 50.6 °F 46.9 °F 30.12 in Calm     87 % 0.00 in
18:31 50.1 °F 46.4 °F 30.12 in Calm     87 % 0.00 in
18:36 50.0 °F 46.3 °F 30.12 in Calm     87 % 0.00 in
18:41 50.1 °F 46.4 °F 30.12 in Calm     87 % 0.00 in
18:56 49.7 °F 46.0 °F 30.12 in Calm     87 % 0.00 in
19:02 49.6 °F 45.9 °F 30.12 in Calm     87 % 0.00 in
19:07 49.5 °F 45.8 °F 30.12 in Calm     87 % 0.00 in
19:12 49.2 °F 45.5 °F 30.12 in Calm     87 % 0.00 in
19:17 48.9 °F 45.2 °F 30.13 in Calm     87 % 0.00 in
19:21 48.6 °F 45.2 °F 30.13 in Calm     88 % 0.00 in
19:25 48.4 °F 45.0 °F 30.13 in Calm     88 % 0.00 in
19:26 48.3 °F 44.9 °F 30.13 in Calm     88 % 0.00 in
19:31 48.2 °F 45.1 °F 30.13 in Calm     89 % 0.00 in
19:35 48.1 °F 45.0 °F 30.13 in Calm     89 % 0.00 in
19:40 47.9 °F 45.1 °F 30.13 in Calm     90 % 0.00 in
19:41 47.9 °F 45.1 °F 30.13 in Calm     90 % 0.00 in
19:46 47.7 °F 44.9 °F 30.14 in Calm     90 % 0.00 in
19:51 47.6 °F 44.8 °F 30.14 in Calm     90 % 0.00 in
19:56 47.5 °F 44.7 °F 30.14 in Calm     90 % 0.00 in
20:01 47.3 °F 44.5 °F 30.13 in Calm     90 % 0.00 in
20:06 47.1 °F 44.3 °F 30.13 in Calm     90 % 0.00 in
20:11 47.1 °F 44.6 °F 30.14 in Calm     91 % 0.00 in
20:17 47.1 °F 44.6 °F 30.14 in ESE 1.0 mph 1.0 mph 91 % 0.00 in
20:22 47.1 °F 44.6 °F 30.14 in Calm     91 % 0.00 in
20:27 46.9 °F 44.1 °F 30.14 in Calm     90 % 0.00 in
20:32 46.8 °F 44.0 °F 30.14 in Calm     90 % 0.00 in
20:37 46.8 °F 44.3 °F 30.14 in ESE 1.2 mph 1.2 mph 91 % 0.00 in
20:42 47.0 °F 44.5 °F 30.14 in ESE 1.2 mph 1.2 mph 91 % 0.00 in
20:47 47.1 °F 44.6 °F 30.14 in East 1.2 mph 1.2 mph 91 % 0.00 in
20:48 47.1 °F 44.6 °F 30.14 in Calm     91 % 0.00 in
20:53 47.2 °F 44.7 °F 30.13 in Calm     91 % 0.00 in
20:58 47.0 °F 44.2 °F 30.13 in Calm     90 % 0.00 in
21:03 46.8 °F 44.3 °F 30.14 in Calm     91 % 0.00 in
21:09 46.6 °F 44.1 °F 30.14 in Calm     91 % 0.00 in
21:14 46.2 °F 43.7 °F 30.14 in Calm     91 % 0.00 in
21:19 45.9 °F 43.4 °F 30.14 in Calm     91 % 0.00 in
21:24 45.7 °F 43.5 °F 30.14 in Calm     92 % 0.00 in
21:29 45.6 °F 43.4 °F 30.14 in Calm     92 % 0.00 in
21:34 45.5 °F 43.3 °F 30.15 in ESE 1.2 mph 1.2 mph 92 % 0.00 in
21:49 44.9 °F 43.0 °F 30.15 in Calm     93 % 0.00 in
21:54 45.1 °F 43.2 °F 30.15 in Calm     93 % 0.00 in
21:59 45.3 °F 43.4 °F 30.15 in Calm     93 % 0.00 in
22:04 45.2 °F 43.3 °F 30.15 in Calm     93 % 0.00 in
22:09 45.2 °F 43.3 °F 30.15 in Calm     93 % 0.00 in
22:14 45.2 °F 43.3 °F 30.15 in Calm     93 % 0.00 in
22:19 45.2 °F 43.3 °F 30.15 in Calm     93 % 0.00 in
22:24 45.3 °F 43.7 °F 30.15 in Calm     94 % 0.00 in
22:29 45.2 °F 43.3 °F 30.15 in Calm     93 % 0.00 in
22:34 45.3 °F 43.7 °F 30.15 in ESE 1.2 mph   94 % 0.00 in
22:39 45.3 °F 43.4 °F 30.15 in Calm     93 % 0.00 in
22:44 45.5 °F 43.6 °F 30.16 in Calm     93 % 0.00 in
22:49 45.6 °F 43.7 °F 30.16 in ESE 1.2 mph   93 % 0.00 in
22:54 45.8 °F 43.9 °F 30.16 in Calm     93 % 0.00 in
22:59 45.9 °F 44.0 °F 30.16 in ESE 1.2 mph   93 % 0.00 in
23:04 46.0 °F 44.1 °F 30.16 in Calm     93 % 0.00 in
23:09 45.9 °F 43.7 °F 30.16 in Calm     92 % 0.00 in
23:14 45.9 °F 43.7 °F 30.15 in Calm     92 % 0.00 in
23:19 45.7 °F 43.5 °F 30.15 in Calm     92 % 0.00 in
23:24 45.9 °F 44.0 °F 30.15 in Calm     93 % 0.00 in
23:29 46.0 °F 44.1 °F 30.14 in Calm     93 % 0.00 in
23:39 46.3 °F 44.4 °F 30.14 in Calm     93 % 0.00 in
23:44 46.5 °F 44.6 °F 30.15 in Calm     93 % 0.00 in
23:49 46.5 °F 44.3 °F 30.15 in Calm     92 % 0.00 in
23:54 46.3 °F 43.8 °F 30.15 in Calm     91 % 0.00 in
Park Place, Exeter, Tulare County, California, USA
Compliments of Weather Underground - 2.5 mb